sensor_id;sensor_type;location;lat;lon;timestamp;P1;durP1;ratioP1;P2;durP2;ratioP2
52530;SDS011;38441;52.894;6.040;2024-03-08T00:01:10;25.17;;;14.38;;
52530;SDS011;38441;52.894;6.040;2024-03-08T00:03:36;23.42;;;14.65;;
52530;SDS011;38441;52.894;6.040;2024-03-08T00:06:02;25.40;;;14.02;;
52530;SDS011;38441;52.894;6.040;2024-03-08T00:08:29;25.38;;;13.57;;
52530;SDS011;38441;52.894;6.040;2024-03-08T00:10:56;23.10;;;14.52;;
52530;SDS011;38441;52.894;6.040;2024-03-08T00:13:22;25.48;;;14.15;;
52530;SDS011;38441;52.894;6.040;2024-03-08T00:15:50;23.52;;;14.10;;
52530;SDS011;38441;52.894;6.040;2024-03-08T00:18:16;24.83;;;13.93;;
52530;SDS011;38441;52.894;6.040;2024-03-08T00:20:42;23.58;;;13.93;;
52530;SDS011;38441;52.894;6.040;2024-03-08T00:23:09;20.52;;;12.90;;
52530;SDS011;38441;52.894;6.040;2024-03-08T00:25:36;25.15;;;14.40;;
52530;SDS011;38441;52.894;6.040;2024-03-08T00:28:02;24.02;;;14.35;;
52530;SDS011;38441;52.894;6.040;2024-03-08T00:30:30;24.63;;;13.60;;
52530;SDS011;38441;52.894;6.040;2024-03-08T00:32:56;22.45;;;14.30;;
52530;SDS011;38441;52.894;6.040;2024-03-08T00:35:22;22.02;;;13.73;;
52530;SDS011;38441;52.894;6.040;2024-03-08T00:37:48;27.38;;;14.63;;
52530;SDS011;38441;52.894;6.040;2024-03-08T00:40:15;27.20;;;15.52;;
52530;SDS011;38441;52.894;6.040;2024-03-08T00:42:41;25.15;;;14.65;;
52530;SDS011;38441;52.894;6.040;2024-03-08T00:45:08;21.65;;;13.63;;
52530;SDS011;38441;52.894;6.040;2024-03-08T00:47:35;23.27;;;14.15;;
52530;SDS011;38441;52.894;6.040;2024-03-08T00:50:00;23.95;;;14.07;;
52530;SDS011;38441;52.894;6.040;2024-03-08T00:52:29;24.45;;;14.50;;
52530;SDS011;38441;52.894;6.040;2024-03-08T00:54:55;24.55;;;14.20;;
52530;SDS011;38441;52.894;6.040;2024-03-08T00:57:21;24.48;;;14.75;;
52530;SDS011;38441;52.894;6.040;2024-03-08T00:59:47;26.33;;;16.17;;
52530;SDS011;38441;52.894;6.040;2024-03-08T01:02:13;24.10;;;14.25;;
52530;SDS011;38441;52.894;6.040;2024-03-08T01:04:39;23.40;;;15.18;;
52530;SDS011;38441;52.894;6.040;2024-03-08T01:07:05;24.40;;;15.65;;
52530;SDS011;38441;52.894;6.040;2024-03-08T01:09:31;25.90;;;14.30;;
52530;SDS011;38441;52.894;6.040;2024-03-08T01:11:57;26.58;;;15.35;;
52530;SDS011;38441;52.894;6.040;2024-03-08T01:14:23;26.77;;;15.60;;
52530;SDS011;38441;52.894;6.040;2024-03-08T01:16:51;22.77;;;15.18;;
52530;SDS011;38441;52.894;6.040;2024-03-08T01:19:16;27.38;;;16.00;;
52530;SDS011;38441;52.894;6.040;2024-03-08T01:21:43;29.15;;;16.25;;
52530;SDS011;38441;52.894;6.040;2024-03-08T01:24:09;25.52;;;15.93;;
52530;SDS011;38441;52.894;6.040;2024-03-08T01:26:35;25.55;;;15.40;;
52530;SDS011;38441;52.894;6.040;2024-03-08T01:29:01;24.33;;;15.18;;
52530;SDS011;38441;52.894;6.040;2024-03-08T01:31:30;25.40;;;16.13;;
52530;SDS011;38441;52.894;6.040;2024-03-08T01:33:57;26.08;;;16.13;;
52530;SDS011;38441;52.894;6.040;2024-03-08T01:36:23;28.77;;;15.57;;
52530;SDS011;38441;52.894;6.040;2024-03-08T01:38:50;29.35;;;16.30;;
52530;SDS011;38441;52.894;6.040;2024-03-08T01:41:16;26.00;;;15.20;;
52530;SDS011;38441;52.894;6.040;2024-03-08T01:43:42;27.50;;;15.75;;
52530;SDS011;38441;52.894;6.040;2024-03-08T01:46:09;32.80;;;16.80;;
52530;SDS011;38441;52.894;6.040;2024-03-08T01:48:35;27.98;;;17.00;;
52530;SDS011;38441;52.894;6.040;2024-03-08T01:51:01;34.00;;;15.57;;
52530;SDS011;38441;52.894;6.040;2024-03-08T01:53:28;29.60;;;17.17;;
52530;SDS011;38441;52.894;6.040;2024-03-08T01:55:56;29.00;;;17.10;;
52530;SDS011;38441;52.894;6.040;2024-03-08T01:58:23;31.75;;;17.20;;
52530;SDS011;38441;52.894;6.040;2024-03-08T02:00:49;27.23;;;16.58;;
52530;SDS011;38441;52.894;6.040;2024-03-08T02:03:16;26.50;;;16.30;;
52530;SDS011;38441;52.894;6.040;2024-03-08T02:05:42;29.75;;;17.25;;
52530;SDS011;38441;52.894;6.040;2024-03-08T02:08:08;28.58;;;16.55;;
52530;SDS011;38441;52.894;6.040;2024-03-08T02:10:40;27.75;;;16.10;;
52530;SDS011;38441;52.894;6.040;2024-03-08T02:13:06;27.30;;;16.63;;
52530;SDS011;38441;52.894;6.040;2024-03-08T02:18:17;27.98;;;16.38;;
52530;SDS011;38441;52.894;6.040;2024-03-08T02:20:44;26.52;;;16.33;;
52530;SDS011;38441;52.894;6.040;2024-03-08T02:23:20;28.65;;;16.60;;
52530;SDS011;38441;52.894;6.040;2024-03-08T02:25:46;26.38;;;16.50;;
52530;SDS011;38441;52.894;6.040;2024-03-08T02:28:13;28.27;;;15.15;;
52530;SDS011;38441;52.894;6.040;2024-03-08T02:30:39;30.48;;;16.30;;
52530;SDS011;38441;52.894;6.040;2024-03-08T02:33:06;31.98;;;16.15;;
52530;SDS011;38441;52.894;6.040;2024-03-08T02:35:35;27.98;;;16.90;;
52530;SDS011;38441;52.894;6.040;2024-03-08T02:38:01;27.38;;;16.80;;
52530;SDS011;38441;52.894;6.040;2024-03-08T02:40:29;26.55;;;16.92;;
52530;SDS011;38441;52.894;6.040;2024-03-08T02:42:54;26.98;;;15.40;;
52530;SDS011;38441;52.894;6.040;2024-03-08T02:45:20;28.35;;;16.85;;
52530;SDS011;38441;52.894;6.040;2024-03-08T02:47:46;23.60;;;15.68;;
52530;SDS011;38441;52.894;6.040;2024-03-08T02:50:14;28.52;;;16.02;;
52530;SDS011;38441;52.894;6.040;2024-03-08T02:52:41;26.75;;;16.65;;
52530;SDS011;38441;52.894;6.040;2024-03-08T02:55:07;29.98;;;16.30;;
52530;SDS011;38441;52.894;6.040;2024-03-08T02:57:35;31.17;;;16.50;;
52530;SDS011;38441;52.894;6.040;2024-03-08T03:00:01;25.35;;;16.23;;
52530;SDS011;38441;52.894;6.040;2024-03-08T03:02:28;24.15;;;15.88;;
52530;SDS011;38441;52.894;6.040;2024-03-08T03:04:54;27.10;;;16.23;;
52530;SDS011;38441;52.894;6.040;2024-03-08T03:07:21;26.85;;;16.58;;
52530;SDS011;38441;52.894;6.040;2024-03-08T03:09:46;29.08;;;16.15;;
52530;SDS011;38441;52.894;6.040;2024-03-08T03:12:12;27.48;;;16.35;;
52530;SDS011;38441;52.894;6.040;2024-03-08T03:14:39;29.20;;;17.33;;
52530;SDS011;38441;52.894;6.040;2024-03-08T03:17:05;27.27;;;17.30;;
52530;SDS011;38441;52.894;6.040;2024-03-08T03:19:31;29.23;;;17.83;;
52530;SDS011;38441;52.894;6.040;2024-03-08T03:21:57;27.13;;;16.42;;
52530;SDS011;38441;52.894;6.040;2024-03-08T03:24:23;26.35;;;15.98;;
52530;SDS011;38441;52.894;6.040;2024-03-08T03:26:49;27.75;;;17.02;;
52530;SDS011;38441;52.894;6.040;2024-03-08T03:29:15;31.33;;;16.80;;
52530;SDS011;38441;52.894;6.040;2024-03-08T03:31:42;27.17;;;16.00;;
52530;SDS011;38441;52.894;6.040;2024-03-08T03:34:11;27.30;;;16.98;;
52530;SDS011;38441;52.894;6.040;2024-03-08T03:36:37;29.30;;;16.13;;
52530;SDS011;38441;52.894;6.040;2024-03-08T03:39:07;25.63;;;15.40;;
52530;SDS011;38441;52.894;6.040;2024-03-08T03:41:41;28.30;;;16.38;;
52530;SDS011;38441;52.894;6.040;2024-03-08T03:44:07;27.88;;;16.17;;
52530;SDS011;38441;52.894;6.040;2024-03-08T03:46:33;27.80;;;16.75;;
52530;SDS011;38441;52.894;6.040;2024-03-08T03:49:00;31.02;;;17.48;;
52530;SDS011;38441;52.894;6.040;2024-03-08T03:51:26;28.15;;;16.92;;
52530;SDS011;38441;52.894;6.040;2024-03-08T03:53:52;26.38;;;16.85;;
52530;SDS011;38441;52.894;6.040;2024-03-08T03:56:18;27.38;;;16.90;;
52530;SDS011;38441;52.894;6.040;2024-03-08T03:58:44;25.98;;;16.67;;
52530;SDS011;38441;52.894;6.040;2024-03-08T04:01:10;29.20;;;18.05;;
52530;SDS011;38441;52.894;6.040;2024-03-08T04:03:35;25.90;;;17.20;;
52530;SDS011;38441;52.894;6.040;2024-03-08T04:06:05;26.80;;;16.33;;
52530;SDS011;38441;52.894;6.040;2024-03-08T04:08:31;26.83;;;16.75;;
52530;SDS011;38441;52.894;6.040;2024-03-08T04:10:59;27.05;;;17.05;;
52530;SDS011;38441;52.894;6.040;2024-03-08T04:13:25;25.85;;;15.73;;
52530;SDS011;38441;52.894;6.040;2024-03-08T04:15:51;25.13;;;15.52;;
52530;SDS011;38441;52.894;6.040;2024-03-08T04:18:17;31.08;;;17.60;;
52530;SDS011;38441;52.894;6.040;2024-03-08T04:20:44;28.77;;;17.60;;
52530;SDS011;38441;52.894;6.040;2024-03-08T04:23:10;28.52;;;16.85;;
52530;SDS011;38441;52.894;6.040;2024-03-08T04:25:36;27.23;;;17.10;;
52530;SDS011;38441;52.894;6.040;2024-03-08T04:28:02;30.08;;;16.95;;
52530;SDS011;38441;52.894;6.040;2024-03-08T04:30:28;28.33;;;16.88;;
52530;SDS011;38441;52.894;6.040;2024-03-08T04:32:55;28.42;;;16.65;;
52530;SDS011;38441;52.894;6.040;2024-03-08T04:35:21;27.63;;;16.23;;
52530;SDS011;38441;52.894;6.040;2024-03-08T04:37:47;29.23;;;17.80;;
52530;SDS011;38441;52.894;6.040;2024-03-08T04:40:13;27.55;;;16.50;;
52530;SDS011;38441;52.894;6.040;2024-03-08T04:42:39;28.05;;;17.40;;
52530;SDS011;38441;52.894;6.040;2024-03-08T04:45:05;25.80;;;16.60;;
52530;SDS011;38441;52.894;6.040;2024-03-08T04:47:33;29.83;;;16.23;;
52530;SDS011;38441;52.894;6.040;2024-03-08T04:49:58;28.92;;;17.40;;
52530;SDS011;38441;52.894;6.040;2024-03-08T04:52:24;27.65;;;16.55;;
52530;SDS011;38441;52.894;6.040;2024-03-08T04:54:51;26.00;;;17.58;;
52530;SDS011;38441;52.894;6.040;2024-03-08T04:57:16;27.45;;;17.33;;
52530;SDS011;38441;52.894;6.040;2024-03-08T04:59:43;28.35;;;16.88;;
52530;SDS011;38441;52.894;6.040;2024-03-08T05:02:09;27.08;;;17.33;;
52530;SDS011;38441;52.894;6.040;2024-03-08T05:04:36;30.98;;;17.20;;
52530;SDS011;38441;52.894;6.040;2024-03-08T05:07:02;26.83;;;17.48;;
52530;SDS011;38441;52.894;6.040;2024-03-08T05:09:29;26.35;;;16.98;;
52530;SDS011;38441;52.894;6.040;2024-03-08T05:11:56;27.48;;;18.17;;
52530;SDS011;38441;52.894;6.040;2024-03-08T05:14:24;28.25;;;17.27;;
52530;SDS011;38441;52.894;6.040;2024-03-08T05:16:50;29.55;;;17.92;;
52530;SDS011;38441;52.894;6.040;2024-03-08T05:19:17;26.83;;;17.23;;
52530;SDS011;38441;52.894;6.040;2024-03-08T05:21:44;29.17;;;17.33;;
52530;SDS011;38441;52.894;6.040;2024-03-08T05:24:10;25.73;;;16.15;;
52530;SDS011;38441;52.894;6.040;2024-03-08T05:26:36;30.30;;;16.75;;
52530;SDS011;38441;52.894;6.040;2024-03-08T05:29:02;28.58;;;16.92;;
52530;SDS011;38441;52.894;6.040;2024-03-08T05:31:28;29.45;;;17.35;;
52530;SDS011;38441;52.894;6.040;2024-03-08T05:33:54;30.23;;;16.95;;
52530;SDS011;38441;52.894;6.040;2024-03-08T05:36:21;27.83;;;17.27;;
52530;SDS011;38441;52.894;6.040;2024-03-08T05:38:50;30.60;;;17.48;;
52530;SDS011;38441;52.894;6.040;2024-03-08T05:41:16;25.85;;;16.63;;
52530;SDS011;38441;52.894;6.040;2024-03-08T05:43:43;28.13;;;16.98;;
52530;SDS011;38441;52.894;6.040;2024-03-08T05:46:09;26.65;;;17.23;;
52530;SDS011;38441;52.894;6.040;2024-03-08T05:48:36;27.05;;;16.55;;
52530;SDS011;38441;52.894;6.040;2024-03-08T05:51:03;28.52;;;16.30;;
52530;SDS011;38441;52.894;6.040;2024-03-08T05:53:29;29.08;;;16.83;;
52530;SDS011;38441;52.894;6.040;2024-03-08T05:55:58;29.10;;;16.52;;
52530;SDS011;38441;52.894;6.040;2024-03-08T05:58:24;30.83;;;18.75;;
52530;SDS011;38441;52.894;6.040;2024-03-08T06:00:50;27.27;;;17.50;;
52530;SDS011;38441;52.894;6.040;2024-03-08T06:03:15;26.48;;;16.90;;
52530;SDS011;38441;52.894;6.040;2024-03-08T06:05:41;28.42;;;18.02;;
52530;SDS011;38441;52.894;6.040;2024-03-08T06:08:07;26.92;;;16.92;;
52530;SDS011;38441;52.894;6.040;2024-03-08T06:10:33;28.80;;;17.60;;
52530;SDS011;38441;52.894;6.040;2024-03-08T06:13:00;29.60;;;17.05;;
52530;SDS011;38441;52.894;6.040;2024-03-08T06:15:26;27.52;;;16.70;;
52530;SDS011;38441;52.894;6.040;2024-03-08T06:17:52;27.95;;;17.05;;
52530;SDS011;38441;52.894;6.040;2024-03-08T06:20:18;33.03;;;17.35;;
52530;SDS011;38441;52.894;6.040;2024-03-08T06:22:43;29.23;;;17.00;;
52530;SDS011;38441;52.894;6.040;2024-03-08T06:25:13;31.70;;;17.23;;
52530;SDS011;38441;52.894;6.040;2024-03-08T06:27:41;28.02;;;17.05;;
52530;SDS011;38441;52.894;6.040;2024-03-08T06:30:08;31.08;;;16.33;;
52530;SDS011;38441;52.894;6.040;2024-03-08T06:32:37;28.05;;;17.30;;
52530;SDS011;38441;52.894;6.040;2024-03-08T06:35:03;30.45;;;18.42;;
52530;SDS011;38441;52.894;6.040;2024-03-08T06:37:31;29.60;;;17.38;;
52530;SDS011;38441;52.894;6.040;2024-03-08T06:39:57;27.92;;;17.38;;
52530;SDS011;38441;52.894;6.040;2024-03-08T06:42:23;30.85;;;18.00;;
52530;SDS011;38441;52.894;6.040;2024-03-08T06:44:49;28.88;;;17.52;;
52530;SDS011;38441;52.894;6.040;2024-03-08T06:47:15;27.38;;;16.88;;
52530;SDS011;38441;52.894;6.040;2024-03-08T06:49:44;27.40;;;16.42;;
52530;SDS011;38441;52.894;6.040;2024-03-08T06:52:10;27.67;;;17.23;;
52530;SDS011;38441;52.894;6.040;2024-03-08T06:54:36;29.42;;;17.33;;
52530;SDS011;38441;52.894;6.040;2024-03-08T06:57:05;31.13;;;17.58;;
52530;SDS011;38441;52.894;6.040;2024-03-08T06:59:31;29.65;;;17.80;;
52530;SDS011;38441;52.894;6.040;2024-03-08T07:01:57;30.05;;;18.15;;
52530;SDS011;38441;52.894;6.040;2024-03-08T07:04:24;26.88;;;17.27;;
52530;SDS011;38441;52.894;6.040;2024-03-08T07:06:54;30.98;;;16.40;;
52530;SDS011;38441;52.894;6.040;2024-03-08T07:09:20;28.88;;;17.02;;
52530;SDS011;38441;52.894;6.040;2024-03-08T07:11:46;27.60;;;16.52;;
52530;SDS011;38441;52.894;6.040;2024-03-08T07:14:19;28.17;;;17.05;;
52530;SDS011;38441;52.894;6.040;2024-03-08T07:16:49;27.88;;;17.67;;
52530;SDS011;38441;52.894;6.040;2024-03-08T07:19:15;33.42;;;18.63;;
52530;SDS011;38441;52.894;6.040;2024-03-08T07:21:42;29.55;;;18.08;;
52530;SDS011;38441;52.894;6.040;2024-03-08T07:24:09;27.40;;;17.42;;
52530;SDS011;38441;52.894;6.040;2024-03-08T07:26:53;28.83;;;17.20;;
52530;SDS011;38441;52.894;6.040;2024-03-08T07:29:20;30.67;;;17.75;;
52530;SDS011;38441;52.894;6.040;2024-03-08T07:31:46;28.17;;;17.17;;
52530;SDS011;38441;52.894;6.040;2024-03-08T07:34:36;30.27;;;17.33;;
52530;SDS011;38441;52.894;6.040;2024-03-08T07:37:02;25.63;;;16.33;;
52530;SDS011;38441;52.894;6.040;2024-03-08T07:39:29;30.63;;;17.60;;
52530;SDS011;38441;52.894;6.040;2024-03-08T07:41:55;27.65;;;16.67;;
52530;SDS011;38441;52.894;6.040;2024-03-08T07:44:21;28.58;;;18.08;;
52530;SDS011;38441;52.894;6.040;2024-03-08T07:46:47;26.50;;;17.10;;
52530;SDS011;38441;52.894;6.040;2024-03-08T07:49:13;28.65;;;17.25;;
52530;SDS011;38441;52.894;6.040;2024-03-08T07:51:40;29.38;;;17.85;;
52530;SDS011;38441;52.894;6.040;2024-03-08T07:54:06;29.77;;;17.45;;
52530;SDS011;38441;52.894;6.040;2024-03-08T07:56:34;26.38;;;17.42;;
52530;SDS011;38441;52.894;6.040;2024-03-08T07:59:01;27.90;;;17.80;;
52530;SDS011;38441;52.894;6.040;2024-03-08T08:01:29;28.63;;;18.05;;
52530;SDS011;38441;52.894;6.040;2024-03-08T08:03:55;30.23;;;18.17;;
52530;SDS011;38441;52.894;6.040;2024-03-08T08:06:22;26.45;;;18.05;;
52530;SDS011;38441;52.894;6.040;2024-03-08T08:08:48;27.33;;;17.25;;
52530;SDS011;38441;52.894;6.040;2024-03-08T08:11:14;25.45;;;16.25;;
52530;SDS011;38441;52.894;6.040;2024-03-08T08:13:41;29.75;;;17.30;;
52530;SDS011;38441;52.894;6.040;2024-03-08T08:16:08;27.80;;;17.25;;
52530;SDS011;38441;52.894;6.040;2024-03-08T08:18:34;28.63;;;17.65;;
52530;SDS011;38441;52.894;6.040;2024-03-08T08:21:00;28.73;;;17.80;;
52530;SDS011;38441;52.894;6.040;2024-03-08T08:23:26;29.65;;;17.40;;
52530;SDS011;38441;52.894;6.040;2024-03-08T08:25:52;27.08;;;17.08;;
52530;SDS011;38441;52.894;6.040;2024-03-08T08:28:18;27.05;;;17.85;;
52530;SDS011;38441;52.894;6.040;2024-03-08T08:30:44;28.55;;;18.23;;
52530;SDS011;38441;52.894;6.040;2024-03-08T08:33:10;24.90;;;16.38;;
52530;SDS011;38441;52.894;6.040;2024-03-08T08:35:36;27.00;;;16.88;;
52530;SDS011;38441;52.894;6.040;2024-03-08T08:38:05;28.80;;;17.25;;
52530;SDS011;38441;52.894;6.040;2024-03-08T08:40:32;27.63;;;18.08;;
52530;SDS011;38441;52.894;6.040;2024-03-08T08:42:58;26.10;;;18.33;;
52530;SDS011;38441;52.894;6.040;2024-03-08T08:45:24;29.50;;;17.67;;
52530;SDS011;38441;52.894;6.040;2024-03-08T08:47:51;28.88;;;16.90;;
52530;SDS011;38441;52.894;6.040;2024-03-08T08:50:17;27.50;;;17.15;;
52530;SDS011;38441;52.894;6.040;2024-03-08T08:52:48;28.23;;;16.47;;
52530;SDS011;38441;52.894;6.040;2024-03-08T08:55:14;27.10;;;18.55;;
52530;SDS011;38441;52.894;6.040;2024-03-08T08:57:40;28.60;;;17.83;;
52530;SDS011;38441;52.894;6.040;2024-03-08T09:00:06;27.48;;;17.50;;
52530;SDS011;38441;52.894;6.040;2024-03-08T09:02:34;26.55;;;16.65;;
52530;SDS011;38441;52.894;6.040;2024-03-08T09:05:00;27.92;;;18.52;;
52530;SDS011;38441;52.894;6.040;2024-03-08T09:07:26;29.15;;;17.38;;
52530;SDS011;38441;52.894;6.040;2024-03-08T09:09:53;27.90;;;17.30;;
52530;SDS011;38441;52.894;6.040;2024-03-08T09:12:23;25.17;;;17.50;;
52530;SDS011;38441;52.894;6.040;2024-03-08T09:14:49;29.15;;;18.70;;
52530;SDS011;38441;52.894;6.040;2024-03-08T09:17:15;27.27;;;18.67;;
52530;SDS011;38441;52.894;6.040;2024-03-08T09:19:57;31.42;;;18.45;;
52530;SDS011;38441;52.894;6.040;2024-03-08T09:22:23;27.85;;;17.92;;
52530;SDS011;38441;52.894;6.040;2024-03-08T09:24:50;26.67;;;17.17;;
52530;SDS011;38441;52.894;6.040;2024-03-08T09:27:15;26.73;;;18.83;;
52530;SDS011;38441;52.894;6.040;2024-03-08T09:29:42;33.42;;;18.45;;
52530;SDS011;38441;52.894;6.040;2024-03-08T09:32:09;25.88;;;17.92;;
52530;SDS011;38441;52.894;6.040;2024-03-08T09:34:36;25.10;;;17.10;;
52530;SDS011;38441;52.894;6.040;2024-03-08T09:37:02;27.92;;;18.98;;
52530;SDS011;38441;52.894;6.040;2024-03-08T09:39:29;31.70;;;18.85;;
52530;SDS011;38441;52.894;6.040;2024-03-08T09:41:55;26.30;;;17.35;;
52530;SDS011;38441;52.894;6.040;2024-03-08T09:44:21;28.45;;;19.20;;
52530;SDS011;38441;52.894;6.040;2024-03-08T09:46:48;26.80;;;17.02;;
52530;SDS011;38441;52.894;6.040;2024-03-08T09:49:18;29.65;;;18.70;;
52530;SDS011;38441;52.894;6.040;2024-03-08T09:51:44;26.23;;;16.65;;
52530;SDS011;38441;52.894;6.040;2024-03-08T09:54:11;29.92;;;19.60;;
52530;SDS011;38441;52.894;6.040;2024-03-08T09:56:38;29.30;;;18.40;;
52530;SDS011;38441;52.894;6.040;2024-03-08T09:59:09;30.75;;;19.52;;
52530;SDS011;38441;52.894;6.040;2024-03-08T10:01:53;30.30;;;19.05;;
52530;SDS011;38441;52.894;6.040;2024-03-08T10:04:24;31.48;;;18.77;;
52530;SDS011;38441;52.894;6.040;2024-03-08T10:06:51;26.23;;;18.40;;
52530;SDS011;38441;52.894;6.040;2024-03-08T10:09:17;28.13;;;18.98;;
52530;SDS011;38441;52.894;6.040;2024-03-08T10:11:43;31.15;;;18.73;;
52530;SDS011;38441;52.894;6.040;2024-03-08T10:14:09;27.92;;;18.83;;
52530;SDS011;38441;52.894;6.040;2024-03-08T10:16:36;29.98;;;18.70;;
52530;SDS011;38441;52.894;6.040;2024-03-08T10:19:03;27.92;;;18.67;;
52530;SDS011;38441;52.894;6.040;2024-03-08T10:21:30;28.52;;;18.60;;
52530;SDS011;38441;52.894;6.040;2024-03-08T10:23:58;29.00;;;18.80;;
52530;SDS011;38441;52.894;6.040;2024-03-08T10:26:24;28.50;;;18.13;;
52530;SDS011;38441;52.894;6.040;2024-03-08T10:28:51;27.00;;;17.35;;
52530;SDS011;38441;52.894;6.040;2024-03-08T10:31:18;28.42;;;17.83;;
52530;SDS011;38441;52.894;6.040;2024-03-08T10:33:48;28.55;;;18.52;;
52530;SDS011;38441;52.894;6.040;2024-03-08T10:36:14;27.88;;;17.95;;
52530;SDS011;38441;52.894;6.040;2024-03-08T10:38:41;29.20;;;19.25;;
52530;SDS011;38441;52.894;6.040;2024-03-08T10:41:11;27.40;;;18.90;;
52530;SDS011;38441;52.894;6.040;2024-03-08T10:46:27;27.92;;;18.75;;
52530;SDS011;38441;52.894;6.040;2024-03-08T10:48:58;28.67;;;18.88;;
52530;SDS011;38441;52.894;6.040;2024-03-08T10:51:29;27.73;;;18.13;;
52530;SDS011;38441;52.894;6.040;2024-03-08T10:53:57;30.50;;;18.98;;
52530;SDS011;38441;52.894;6.040;2024-03-08T10:56:24;28.77;;;18.75;;
52530;SDS011;38441;52.894;6.040;2024-03-08T10:58:52;28.92;;;19.98;;
52530;SDS011;38441;52.894;6.040;2024-03-08T11:01:19;26.75;;;18.52;;
52530;SDS011;38441;52.894;6.040;2024-03-08T11:03:48;28.15;;;18.90;;
52530;SDS011;38441;52.894;6.040;2024-03-08T11:06:29;27.63;;;20.02;;
52530;SDS011;38441;52.894;6.040;2024-03-08T11:09:01;27.98;;;18.90;;
52530;SDS011;38441;52.894;6.040;2024-03-08T11:11:27;26.83;;;18.83;;
52530;SDS011;38441;52.894;6.040;2024-03-08T11:13:57;26.38;;;18.40;;
52530;SDS011;38441;52.894;6.040;2024-03-08T11:18:53;27.98;;;18.85;;
52530;SDS011;38441;52.894;6.040;2024-03-08T11:21:39;28.35;;;18.55;;
52530;SDS011;38441;52.894;6.040;2024-03-08T11:24:12;24.83;;;18.08;;
52530;SDS011;38441;52.894;6.040;2024-03-08T11:26:39;28.10;;;17.20;;
52530;SDS011;38441;52.894;6.040;2024-03-08T11:34:53;26.65;;;18.13;;
52530;SDS011;38441;52.894;6.040;2024-03-08T11:37:20;27.25;;;18.35;;
52530;SDS011;38441;52.894;6.040;2024-03-08T11:39:51;27.75;;;17.52;;
52530;SDS011;38441;52.894;6.040;2024-03-08T11:42:23;28.10;;;19.23;;
52530;SDS011;38441;52.894;6.040;2024-03-08T11:44:51;25.80;;;18.02;;
52530;SDS011;38441;52.894;6.040;2024-03-08T11:47:17;28.25;;;19.45;;
52530;SDS011;38441;52.894;6.040;2024-03-08T11:49:44;28.58;;;17.48;;
52530;SDS011;38441;52.894;6.040;2024-03-08T11:52:13;27.80;;;17.63;;
52530;SDS011;38441;52.894;6.040;2024-03-08T11:54:43;27.35;;;17.63;;
52530;SDS011;38441;52.894;6.040;2024-03-08T11:57:22;29.10;;;18.17;;
52530;SDS011;38441;52.894;6.040;2024-03-08T11:59:52;27.92;;;18.20;;
52530;SDS011;38441;52.894;6.040;2024-03-08T12:02:19;25.10;;;17.42;;
52530;SDS011;38441;52.894;6.040;2024-03-08T12:04:45;24.10;;;17.55;;
52530;SDS011;38441;52.894;6.040;2024-03-08T12:07:14;26.90;;;17.60;;
52530;SDS011;38441;52.894;6.040;2024-03-08T12:09:43;25.85;;;18.02;;
52530;SDS011;38441;52.894;6.040;2024-03-08T12:12:30;26.55;;;18.38;;
52530;SDS011;38441;52.894;6.040;2024-03-08T12:14:57;23.60;;;17.17;;
52530;SDS011;38441;52.894;6.040;2024-03-08T12:17:23;24.85;;;17.77;;
52530;SDS011;38441;52.894;6.040;2024-03-08T12:19:49;26.80;;;16.15;;
52530;SDS011;38441;52.894;6.040;2024-03-08T12:22:15;24.35;;;17.33;;
52530;SDS011;38441;52.894;6.040;2024-03-08T12:24:41;21.88;;;14.88;;
52530;SDS011;38441;52.894;6.040;2024-03-08T12:27:17;24.23;;;16.85;;
52530;SDS011;38441;52.894;6.040;2024-03-08T12:29:44;21.90;;;16.60;;
52530;SDS011;38441;52.894;6.040;2024-03-08T12:32:10;22.42;;;15.25;;
52530;SDS011;38441;52.894;6.040;2024-03-08T12:34:36;24.70;;;17.50;;
52530;SDS011;38441;52.894;6.040;2024-03-08T12:37:02;24.48;;;16.70;;
52530;SDS011;38441;52.894;6.040;2024-03-08T12:39:32;25.15;;;16.52;;
52530;SDS011;38441;52.894;6.040;2024-03-08T12:41:58;23.42;;;16.38;;
52530;SDS011;38441;52.894;6.040;2024-03-08T12:44:25;25.55;;;17.33;;
52530;SDS011;38441;52.894;6.040;2024-03-08T12:46:51;26.02;;;18.27;;
52530;SDS011;38441;52.894;6.040;2024-03-08T12:49:18;24.20;;;17.15;;
52530;SDS011;38441;52.894;6.040;2024-03-08T12:51:47;24.13;;;16.77;;
52530;SDS011;38441;52.894;6.040;2024-03-08T12:54:13;26.35;;;17.05;;
52530;SDS011;38441;52.894;6.040;2024-03-08T12:56:39;24.20;;;16.55;;
52530;SDS011;38441;52.894;6.040;2024-03-08T12:59:05;23.40;;;16.95;;
52530;SDS011;38441;52.894;6.040;2024-03-08T13:01:38;23.65;;;16.52;;
52530;SDS011;38441;52.894;6.040;2024-03-08T13:04:04;21.85;;;15.93;;
52530;SDS011;38441;52.894;6.040;2024-03-08T13:06:32;23.35;;;15.48;;
52530;SDS011;38441;52.894;6.040;2024-03-08T13:08:58;24.42;;;15.32;;
52530;SDS011;38441;52.894;6.040;2024-03-08T13:11:25;20.65;;;14.32;;
52530;SDS011;38441;52.894;6.040;2024-03-08T13:13:52;21.17;;;15.07;;
52530;SDS011;38441;52.894;6.040;2024-03-08T13:16:18;21.83;;;15.77;;
52530;SDS011;38441;52.894;6.040;2024-03-08T13:18:47;23.35;;;13.63;;
52530;SDS011;38441;52.894;6.040;2024-03-08T13:21:13;23.25;;;15.57;;
52530;SDS011;38441;52.894;6.040;2024-03-08T13:23:40;22.98;;;15.45;;
52530;SDS011;38441;52.894;6.040;2024-03-08T13:26:10;25.73;;;15.70;;
52530;SDS011;38441;52.894;6.040;2024-03-08T13:28:41;19.60;;;13.55;;
52530;SDS011;38441;52.894;6.040;2024-03-08T13:31:19;20.50;;;15.15;;
52530;SDS011;38441;52.894;6.040;2024-03-08T13:33:45;25.95;;;15.73;;
52530;SDS011;38441;52.894;6.040;2024-03-08T13:36:12;21.23;;;15.57;;
52530;SDS011;38441;52.894;6.040;2024-03-08T13:38:44;21.77;;;15.60;;
52530;SDS011;38441;52.894;6.040;2024-03-08T13:41:11;22.83;;;15.88;;
52530;SDS011;38441;52.894;6.040;2024-03-08T13:43:39;22.00;;;15.38;;
52530;SDS011;38441;52.894;6.040;2024-03-08T13:46:14;21.67;;;15.27;;
52530;SDS011;38441;52.894;6.040;2024-03-08T13:48:40;21.60;;;14.23;;
52530;SDS011;38441;52.894;6.040;2024-03-08T13:51:08;20.65;;;14.48;;
52530;SDS011;38441;52.894;6.040;2024-03-08T13:53:40;19.40;;;14.05;;
52530;SDS011;38441;52.894;6.040;2024-03-08T13:56:06;21.38;;;14.07;;
52530;SDS011;38441;52.894;6.040;2024-03-08T13:58:33;19.00;;;14.32;;
52530;SDS011;38441;52.894;6.040;2024-03-08T14:01:00;22.70;;;15.25;;
52530;SDS011;38441;52.894;6.040;2024-03-08T14:03:28;22.25;;;15.45;;
52530;SDS011;38441;52.894;6.040;2024-03-08T14:05:54;20.00;;;15.45;;
52530;SDS011;38441;52.894;6.040;2024-03-08T14:08:23;21.13;;;14.95;;
52530;SDS011;38441;52.894;6.040;2024-03-08T14:10:49;20.40;;;14.95;;
52530;SDS011;38441;52.894;6.040;2024-03-08T14:13:17;21.05;;;14.20;;
52530;SDS011;38441;52.894;6.040;2024-03-08T14:15:44;20.15;;;14.18;;
52530;SDS011;38441;52.894;6.040;2024-03-08T14:18:11;21.75;;;14.75;;
52530;SDS011;38441;52.894;6.040;2024-03-08T14:20:38;20.55;;;14.38;;
52530;SDS011;38441;52.894;6.040;2024-03-08T14:23:04;21.13;;;14.68;;
52530;SDS011;38441;52.894;6.040;2024-03-08T14:25:33;20.55;;;15.90;;
52530;SDS011;38441;52.894;6.040;2024-03-08T14:27:59;20.67;;;14.63;;
52530;SDS011;38441;52.894;6.040;2024-03-08T14:30:32;19.67;;;15.10;;
52530;SDS011;38441;52.894;6.040;2024-03-08T14:33:02;21.20;;;15.68;;
52530;SDS011;38441;52.894;6.040;2024-03-08T14:35:34;20.67;;;14.75;;